La Nubia Airport

Airport
ICAO code: 
SKMZ
IATA Code: 
MZL
Summary
ICAO Region: 
CARSAM
Territory: 
Location: 
La Enea, Caldas Department
Serving: 
Manizales
Elevation: 
6768 ft
Coordinates: 
Aerial View: 
5° 1' 48.958" N, 75° 28' 15.056" W
Metar
Observation
SKMZ 021200Z 10009KT 8000 VCFG SCT008 14/12 Q1026 RMK VCFG/W A3031
Station
MANIZALES LNUBIA
Date/Time
2021-12-02 12:00:00
Wind direction
100°
Wind speed
09 kts
Lowest cloud amount
scattered clouds
Temperature
14°C
Dew point
12°C
Humidity
87%
QNH
1026 hPa
Weather condition
n/a

La Nubia Airport is an airport serving Manizales, Colombia, 8km southeast of the city's downtown.

Climatology

Subtropical highland climate (Köppen climate classification Cfb)

Runways

Designator Length Width Surface Rops
9/27 0 0 UNK No/No
10/28 1474 20 ASP No/No
Airport map: 
Aerial View: 

SKYbrary Partners:

Safety knowledge contributed by: